Time;durP1;ratioP1;P1;durP2;ratioP2;P2;SDS_P1;SDS_P2;PMS_P1;PMS_P2;Temp;Humidity;BMP_temperature;BMP_pressure;BME280_temperature;BME280_humidity;BME280_pressure;Samples;Min_cycle;Max_cycle;Signal;HPM_P1;HPM_P2
2023/12/05 00:00:27;;;;;;;15.18;7.05;;;2.00;99.90;;;;;;5017289;28;20018;-62
2023/12/05 00:02:52;;;;;;;14.27;6.97;;;2.00;99.90;;;;;;5017457;28;20072;-63
2023/12/05 00:05:18;;;;;;;11.63;6.28;;;2.00;99.90;;;;;;5018747;28;20037;-62
2023/12/05 00:07:43;;;;;;;16.83;6.72;;;2.30;99.90;;;;;;5018983;28;20100;-63
2023/12/05 00:10:09;;;;;;;15.90;7.10;;;2.40;99.90;;;;;;5018760;28;20037;-65
2023/12/05 00:12:35;;;;;;;19.13;7.18;;;2.30;99.90;;;;;;5017814;28;20092;-65
2023/12/05 00:15:01;;;;;;;17.30;7.05;;;2.10;99.90;;;;;;5018189;28;20026;-66
2023/12/05 00:17:26;;;;;;;17.35;7.57;;;2.10;99.90;;;;;;5018216;28;20025;-65
2023/12/05 00:19:52;;;;;;;17.00;7.10;;;2.10;99.90;;;;;;5017309;28;20018;-65
2023/12/05 00:22:17;;;;;;;16.10;7.30;;;2.00;99.90;;;;;;5018118;28;20030;-65
2023/12/05 00:24:43;;;;;;;22.15;8.27;;;2.10;99.90;;;;;;5017901;28;20120;-65
2023/12/05 00:27:09;;;;;;;14.20;6.25;;;2.20;99.90;;;;;;5017166;28;20118;-65
2023/12/05 00:29:36;;;;;;;14.65;5.70;;;2.30;99.90;;;;;;5018132;28;20022;-65
2023/12/05 00:32:01;;;;;;;20.35;8.35;;;2.20;99.90;;;;;;5017645;28;20022;-65
2023/12/05 00:34:27;;;;;;;16.55;8.52;;;2.00;99.90;;;;;;5016948;28;20049;-66
2023/12/05 00:36:52;;;;;;;17.95;8.50;;;2.10;99.90;;;;;;5017385;28;20025;-65
2023/12/05 00:39:18;;;;;;;22.85;6.95;;;2.20;99.90;;;;;;5016819;28;20112;-66
2023/12/05 00:41:44;;;;;;;13.90;6.90;;;2.20;99.90;;;;;;5017366;28;20048;-65
2023/12/05 00:44:09;;;;;;;17.52;7.13;;;2.40;99.90;;;;;;5016983;28;20025;-65
2023/12/05 00:46:35;;;;;;;19.92;8.30;;;2.30;99.90;;;;;;5017096;28;20030;-65
2023/12/05 00:49:00;;;;;;;20.80;8.63;;;2.00;99.90;;;;;;5017728;28;20033;-65
2023/12/05 00:51:26;;;;;;;16.23;7.75;;;1.90;99.90;;;;;;5016869;28;20032;-65
2023/12/05 00:53:51;;;;;;;19.63;8.82;;;1.90;99.90;;;;;;5016747;28;20033;-65
2023/12/05 00:56:18;;;;;;;14.57;7.65;;;1.90;99.90;;;;;;5017071;28;20045;-65
2023/12/05 00:58:44;;;;;;;16.88;7.53;;;1.90;99.90;;;;;;5017495;28;20022;-62
2023/12/05 01:01:10;;;;;;;20.50;8.65;;;2.10;99.90;;;;;;5017018;28;20157;-63
2023/12/05 01:03:35;;;;;;;15.80;7.43;;;2.10;99.90;;;;;;5018094;28;20105;-63
2023/12/05 01:06:01;;;;;;;15.93;6.88;;;2.00;99.90;;;;;;5016723;28;20053;-62
2023/12/05 01:08:27;;;;;;;20.48;8.45;;;1.80;99.90;;;;;;5016542;28;20025;-62
2023/12/05 01:10:52;;;;;;;19.52;7.43;;;1.90;99.90;;;;;;5016634;28;20026;-62
2023/12/05 01:13:17;;;;;;;22.50;9.23;;;1.80;99.90;;;;;;5016196;28;20022;-63
2023/12/05 01:15:43;;;;;;;16.92;7.88;;;1.90;99.90;;;;;;5016688;28;20049;-62
2023/12/05 01:18:10;;;;;;;16.48;8.57;;;2.00;99.90;;;;;;5016254;28;20080;-62
2023/12/05 01:20:36;;;;;;;19.58;8.57;;;2.00;99.90;;;;;;5017523;28;20030;-62
2023/12/05 01:23:01;;;;;;;20.33;9.15;;;2.00;99.90;;;;;;5016301;28;20064;-62
2023/12/05 01:25:27;;;;;;;21.58;9.13;;;1.90;99.90;;;;;;5017203;28;20024;-62
2023/12/05 01:27:52;;;;;;;17.52;7.90;;;2.00;99.90;;;;;;5017263;28;20026;-64
2023/12/05 01:30:18;;;;;;;19.15;8.43;;;2.20;99.90;;;;;;5017316;28;20030;-65
2023/12/05 01:32:44;;;;;;;16.52;7.32;;;2.30;99.90;;;;;;5017122;28;20018;-65
2023/12/05 01:35:10;;;;;;;21.65;9.57;;;2.40;99.90;;;;;;5016219;28;20032;-65
2023/12/05 01:37:37;;;;;;;19.45;8.75;;;2.50;99.90;;;;;;5015875;28;20081;-65
2023/12/05 01:40:05;;;;;;;21.38;8.40;;;2.50;99.90;;;;;;5017112;28;20021;-65
2023/12/05 01:42:35;;;;;;;18.45;9.20;;;2.60;99.90;;;;;;5016965;28;20180;-65
2023/12/05 01:45:01;;;;;;;20.10;8.73;;;2.70;99.90;;;;;;5017296;28;20033;-65
2023/12/05 01:47:27;;;;;;;19.10;8.68;;;2.40;99.90;;;;;;5016952;28;20030;-65
2023/12/05 01:49:52;;;;;;;16.83;7.38;;;2.40;99.90;;;;;;5017083;28;20095;-65
2023/12/05 01:52:19;;;;;;;17.33;8.05;;;2.20;99.90;;;;;;5015967;28;20052;-65
2023/12/05 01:54:45;;;;;;;16.85;7.38;;;2.30;99.90;;;;;;5016867;28;20088;-65
2023/12/05 01:57:10;;;;;;;17.80;8.50;;;2.50;99.90;;;;;;5016220;28;20041;-65
2023/12/05 01:59:36;;;;;;;16.33;8.05;;;2.40;99.90;;;;;;5015948;28;20022;-65
2023/12/05 02:02:02;;;;;;;21.25;8.70;;;2.20;99.90;;;;;;5016697;28;20022;-65
2023/12/05 02:04:30;;;;;;;19.67;8.80;;;2.10;99.90;;;;;;5016629;28;20029;-65
2023/12/05 02:06:55;;;;;;;26.25;10.02;;;2.00;99.90;;;;;;5015865;28;20061;-65
2023/12/05 02:09:24;;;;;;;23.08;9.52;;;1.90;99.90;;;;;;5016711;28;20037;-65
2023/12/05 02:11:50;;;;;;;23.75;9.35;;;1.90;99.90;;;;;;5017185;28;20062;-65
2023/12/05 02:14:15;;;;;;;20.65;9.38;;;2.00;99.90;;;;;;5016602;28;20069;-65
2023/12/05 02:16:50;;;;;;;23.10;10.70;;;2.10;99.90;;;;;;5015770;28;20072;-65
2023/12/05 02:19:28;;;;;;;29.05;10.65;;;1.90;99.90;;;;;;5016714;28;20033;-65
2023/12/05 02:21:54;;;;;;;24.80;9.73;;;2.00;99.90;;;;;;5017000;28;20021;-65
2023/12/05 02:24:52;;;;;;;28.13;11.27;;;1.90;99.90;;;;;;5016884;28;20033;-65
2023/12/05 02:27:37;;;;;;;30.85;11.50;;;1.80;99.90;;;;;;4995170;28;20033;-65
2023/12/05 02:30:04;;;;;;;26.35;10.48;;;1.70;99.90;;;;;;5019840;28;20033;-65
2023/12/05 02:32:29;;;;;;;28.38;11.48;;;1.80;99.90;;;;;;5019430;28;20030;-65
2023/12/05 02:34:55;;;;;;;28.48;10.80;;;1.70;99.90;;;;;;5019146;28;20075;-65
2023/12/05 02:37:38;;;;;;;26.73;11.07;;;1.70;99.90;;;;;;5020608;28;20034;-65
2023/12/05 02:40:26;;;;;;;25.30;11.35;;;1.70;99.90;;;;;;5020096;28;20101;-65
2023/12/05 02:42:56;;;;;;;39.60;13.32;;;1.70;99.90;;;;;;5020099;28;20026;-65
2023/12/05 02:45:28;;;;;;;39.13;12.60;;;1.70;99.90;;;;;;5019427;28;20022;-65
2023/12/05 02:47:56;;;;;;;38.47;13.63;;;1.70;99.90;;;;;;5019906;28;20026;-65
2023/12/05 02:50:21;;;;;;;29.27;11.50;;;1.80;99.90;;;;;;5020035;28;20049;-65
2023/12/05 02:52:47;;;;;;;32.85;12.43;;;2.00;99.90;;;;;;5018917;28;20030;-65
2023/12/05 02:55:12;;;;;;;26.48;10.73;;;2.00;99.90;;;;;;5018794;28;20026;-65
2023/12/05 02:57:38;;;;;;;27.15;11.05;;;2.00;99.90;;;;;;5020001;28;20086;-65
2023/12/05 03:00:04;;;;;;;32.83;11.73;;;1.90;99.90;;;;;;5018732;28;20029;-65
2023/12/05 03:02:30;;;;;;;34.00;13.45;;;1.80;99.90;;;;;;5019609;28;20026;-65
2023/12/05 03:04:56;;;;;;;28.95;11.85;;;1.90;99.90;;;;;;5020042;28;20044;-65
2023/12/05 03:07:21;;;;;;;27.60;11.68;;;1.90;99.90;;;;;;5018609;28;20018;-65
2023/12/05 03:09:47;;;;;;;31.05;11.77;;;1.90;99.90;;;;;;5018991;28;20025;-65
2023/12/05 03:12:12;;;;;;;33.53;13.00;;;1.90;99.90;;;;;;5019416;28;20061;-65
2023/12/05 03:14:38;;;;;;;41.67;15.75;;;1.90;99.90;;;;;;5018369;28;20041;-65
2023/12/05 03:17:03;;;;;;;41.53;16.08;;;2.00;99.90;;;;;;5018483;28;20022;-65
2023/12/05 03:19:29;;;;;;;40.40;14.50;;;2.10;99.90;;;;;;5018705;28;20116;-65
2023/12/05 03:21:55;;;;;;;40.25;13.95;;;2.20;99.90;;;;;;5018336;28;20026;-65
2023/12/05 03:24:20;;;;;;;39.28;13.65;;;2.20;99.90;;;;;;5019160;28;20018;-65
2023/12/05 03:26:46;;;;;;;29.95;12.88;;;2.30;99.90;;;;;;5019315;28;20030;-65
2023/12/05 03:29:12;;;;;;;36.17;14.45;;;2.10;99.90;;;;;;5018232;28;20053;-65
2023/12/05 03:31:39;;;;;;;34.22;14.15;;;2.00;99.90;;;;;;5019119;28;20053;-65
2023/12/05 03:34:06;;;;;;;33.42;11.73;;;2.10;99.90;;;;;;5019291;28;20030;-65
2023/12/05 03:36:32;;;;;;;37.30;14.27;;;2.10;99.90;;;;;;5018842;28;20030;-65
2023/12/05 03:38:57;;;;;;;30.45;12.52;;;2.40;99.90;;;;;;5019019;28;20124;-66
2023/12/05 03:41:23;;;;;;;38.38;13.68;;;2.50;99.90;;;;;;5018083;28;20076;-65
2023/12/05 03:43:49;;;;;;;33.22;13.85;;;2.30;99.90;;;;;;5018160;28;20029;-65
2023/12/05 03:46:14;;;;;;;36.58;14.48;;;2.20;99.90;;;;;;5018682;28;20026;-65
2023/12/05 03:48:40;;;;;;;36.33;13.52;;;2.10;99.90;;;;;;5017878;28;20116;-65
2023/12/05 03:51:06;;;;;;;35.42;13.48;;;2.20;99.90;;;;;;5018117;28;20121;-65
2023/12/05 03:53:31;;;;;;;34.88;13.85;;;2.40;99.90;;;;;;5019051;28;20058;-65
2023/12/05 03:55:56;;;;;;;35.92;14.07;;;2.50;99.90;;;;;;5018528;28;20034;-65
2023/12/05 03:58:22;;;;;;;39.30;14.60;;;2.40;99.90;;;;;;5018612;28;20025;-65
2023/12/05 04:00:48;;;;;;;41.15;15.43;;;2.40;99.90;;;;;;5017969;28;20022;-65
2023/12/05 04:03:14;;;;;;;36.35;13.80;;;2.50;99.90;;;;;;5018348;28;20030;-65
2023/12/05 04:05:40;;;;;;;40.15;15.15;;;2.70;99.90;;;;;;5018343;28;20014;-65
2023/12/05 04:08:06;;;;;;;30.50;12.88;;;2.70;99.90;;;;;;5018388;28;20033;-65
2023/12/05 04:10:31;;;;;;;37.13;14.07;;;2.80;99.90;;;;;;5018547;28;20105;-65
2023/12/05 04:12:58;;;;;;;24.75;10.82;;;2.80;99.90;;;;;;5017532;28;20024;-65
2023/12/05 04:15:24;;;;;;;26.88;11.88;;;2.90;99.90;;;;;;5018424;28;20022;-65
2023/12/05 04:17:49;;;;;;;27.50;12.85;;;2.80;99.90;;;;;;5018082;28;20041;-65
2023/12/05 04:20:16;;;;;;;28.52;10.55;;;2.90;99.90;;;;;;5018370;28;20105;-65
2023/12/05 04:22:41;;;;;;;24.45;11.48;;;2.90;99.90;;;;;;5018119;28;20025;-65
2023/12/05 04:25:08;;;;;;;33.55;12.73;;;2.80;99.90;;;;;;5018002;28;20026;-65
2023/12/05 04:27:34;;;;;;;24.65;11.00;;;2.80;99.90;;;;;;5018347;28;20018;-65
2023/12/05 04:29:59;;;;;;;29.17;12.48;;;2.90;99.90;;;;;;5018221;28;20045;-65
2023/12/05 04:32:25;;;;;;;34.50;12.90;;;2.80;99.90;;;;;;5018022;28;20026;-65
2023/12/05 04:34:51;;;;;;;31.35;13.15;;;2.80;99.90;;;;;;5017461;28;20022;-66
2023/12/05 04:37:17;;;;;;;34.70;13.95;;;2.80;99.90;;;;;;5016733;28;20030;-65
2023/12/05 04:39:42;;;;;;;44.78;15.27;;;2.80;99.90;;;;;;5017885;28;20029;-65
2023/12/05 04:42:08;;;;;;;39.45;13.43;;;2.70;99.90;;;;;;5017741;28;20058;-65
2023/12/05 04:44:33;;;;;;;30.73;11.95;;;2.60;99.90;;;;;;5017642;28;20026;-65
2023/12/05 04:46:59;;;;;;;30.80;11.80;;;2.80;99.90;;;;;;5016249;28;20022;-65
2023/12/05 04:49:25;;;;;;;29.65;12.20;;;2.90;99.90;;;;;;5016949;28;20051;-65
2023/12/05 04:51:51;;;;;;;31.13;14.13;;;2.90;99.90;;;;;;5017660;28;20096;-65
2023/12/05 04:54:16;;;;;;;32.97;14.52;;;2.80;99.90;;;;;;5016874;28;20032;-65
2023/12/05 04:56:42;;;;;;;31.85;12.65;;;2.70;99.90;;;;;;5016524;28;20030;-65
2023/12/05 04:59:08;;;;;;;30.80;13.38;;;2.80;99.90;;;;;;5017490;28;20026;-65
2023/12/05 05:01:33;;;;;;;35.85;13.27;;;2.70;99.90;;;;;;5017410;28;20101;-65
2023/12/05 05:03:59;;;;;;;33.50;13.43;;;2.60;99.90;;;;;;5017402;28;20068;-65
2023/12/05 05:06:25;;;;;;;37.58;13.95;;;2.60;99.90;;;;;;5017603;28;20025;-65
2023/12/05 05:08:50;;;;;;;36.53;14.02;;;2.70;99.90;;;;;;5017305;28;20021;-65
2023/12/05 05:11:16;;;;;;;41.08;15.57;;;2.70;99.90;;;;;;5017841;28;20026;-65
2023/12/05 05:13:42;;;;;;;32.42;14.02;;;2.80;99.90;;;;;;5016304;28;20021;-62
2023/12/05 05:16:09;;;;;;;31.17;12.30;;;3.00;99.90;;;;;;5016669;28;20121;-62
2023/12/05 05:18:34;;;;;;;36.03;13.00;;;3.10;99.90;;;;;;5017403;28;20026;-62
2023/12/05 05:21:00;;;;;;;35.40;14.40;;;3.20;99.90;;;;;;5017088;28;20026;-62
2023/12/05 05:23:25;;;;;;;35.42;14.43;;;3.10;99.90;;;;;;5017926;28;20033;-62
2023/12/05 05:25:51;;;;;;;42.60;15.95;;;3.10;99.90;;;;;;5017097;28;20022;-62
2023/12/05 05:28:16;;;;;;;40.45;14.05;;;3.00;99.90;;;;;;5017104;28;20030;-62
2023/12/05 05:30:42;;;;;;;42.50;16.25;;;3.00;99.90;;;;;;5016311;28;20034;-63
2023/12/05 05:33:08;;;;;;;28.38;12.05;;;3.10;99.90;;;;;;5017020;28;20084;-62
2023/12/05 05:35:33;;;;;;;27.83;12.70;;;3.20;99.90;;;;;;5017167;28;20104;-66
2023/12/05 05:37:59;;;;;;;29.67;12.38;;;3.20;99.90;;;;;;5016656;28;20026;-67
2023/12/05 05:40:26;;;;;;;24.70;11.50;;;3.30;99.90;;;;;;5016052;28;20022;-67
2023/12/05 05:42:51;;;;;;;34.30;13.85;;;3.40;99.90;;;;;;5016869;28;20014;-67
2023/12/05 05:45:17;;;;;;;24.83;12.32;;;3.40;99.90;;;;;;5016994;28;20029;-67
2023/12/05 05:47:42;;;;;;;32.17;13.52;;;3.40;99.90;;;;;;5016237;28;20033;-67
2023/12/05 05:50:08;;;;;;;34.38;13.15;;;3.40;99.90;;;;;;5016792;28;20021;-67
2023/12/05 05:52:33;;;;;;;26.63;11.70;;;3.50;99.90;;;;;;5015885;28;20036;-67
2023/12/05 05:54:59;;;;;;;31.55;12.88;;;3.60;99.90;;;;;;5016718;28;20034;-67
2023/12/05 05:57:25;;;;;;;32.53;13.18;;;3.50;99.90;;;;;;5016738;28;20030;-67
2023/12/05 05:59:51;;;;;;;26.33;11.38;;;3.40;99.90;;;;;;5018653;28;20037;-67
2023/12/05 06:02:16;;;;;;;29.23;11.80;;;3.40;99.90;;;;;;5020700;28;20025;-67
2023/12/05 06:04:42;;;;;;;34.58;14.00;;;3.50;99.90;;;;;;5020713;28;20025;-67
2023/12/05 06:07:08;;;;;;;32.45;12.88;;;3.30;99.90;;;;;;5020552;28;20026;-67
2023/12/05 06:09:34;;;;;;;34.95;15.30;;;3.40;99.90;;;;;;5019864;28;20022;-67
2023/12/05 06:12:00;;;;;;;35.03;14.70;;;3.30;99.90;;;;;;5019634;28;20025;-67
2023/12/05 06:14:25;;;;;;;36.35;13.38;;;3.30;99.90;;;;;;5020415;28;20025;-67
2023/12/05 06:16:50;;;;;;;31.98;13.70;;;3.40;99.90;;;;;;5020626;28;20155;-67
2023/12/05 06:19:16;;;;;;;36.50;14.68;;;3.40;99.90;;;;;;5020218;28;20029;-67
2023/12/05 06:21:42;;;;;;;38.80;15.30;;;3.30;99.90;;;;;;5020769;28;20018;-67
2023/12/05 06:24:08;;;;;;;43.97;16.35;;;3.30;99.90;;;;;;5020496;28;20026;-67
2023/12/05 06:26:34;;;;;;;40.78;15.65;;;3.30;99.90;;;;;;5019220;28;20032;-67
2023/12/05 06:29:06;;;;;;;41.38;16.17;;;3.30;99.90;;;;;;5020294;28;20037;-67
2023/12/05 06:31:32;;;;;;;30.08;13.35;;;3.20;99.90;;;;;;5020124;28;20080;-67
2023/12/05 06:33:58;;;;;;;43.28;16.02;;;3.40;99.90;;;;;;5020181;28;20030;-65
2023/12/05 06:36:24;;;;;;;42.63;16.77;;;3.30;99.90;;;;;;5018868;28;20033;-65
2023/12/05 06:38:49;;;;;;;41.38;15.90;;;3.30;99.90;;;;;;5019986;28;20084;-65
2023/12/05 06:41:15;;;;;;;46.15;16.92;;;3.40;99.90;;;;;;5020258;28;20030;-65
2023/12/05 06:43:40;;;;;;;34.47;14.85;;;3.30;99.90;;;;;;5019945;28;20026;-65
2023/12/05 06:46:07;;;;;;;32.72;13.60;;;3.20;99.90;;;;;;5018897;28;20030;-65
2023/12/05 06:48:33;;;;;;;40.30;14.65;;;3.50;99.90;;;;;;5019858;28;20025;-65
2023/12/05 06:50:58;;;;;;;36.20;14.18;;;3.50;99.90;;;;;;5019061;28;20041;-65
2023/12/05 06:53:24;;;;;;;36.95;15.45;;;3.60;99.90;;;;;;5020063;28;20026;-65
2023/12/05 06:55:49;;;;;;;35.75;14.75;;;3.60;99.90;;;;;;5018850;28;20026;-65
2023/12/05 06:58:15;;;;;;;36.30;14.73;;;3.60;99.90;;;;;;5019611;28;20049;-66
2023/12/05 07:00:41;;;;;;;29.00;13.25;;;3.60;99.90;;;;;;5019751;28;20029;-66
2023/12/05 07:03:07;;;;;;;32.30;13.43;;;3.70;99.90;;;;;;5019851;28;20026;-66
2023/12/05 07:05:32;;;;;;;38.75;15.13;;;3.60;99.90;;;;;;5019905;28;20141;-66
2023/12/05 07:07:58;;;;;;;37.15;14.65;;;3.60;99.90;;;;;;5018717;28;20045;-66
2023/12/05 07:10:24;;;;;;;41.08;14.65;;;3.40;99.90;;;;;;5018992;28;20033;-66
2023/12/05 07:12:49;;;;;;;55.08;16.92;;;3.50;99.90;;;;;;5019718;28;20026;-66
2023/12/05 07:15:15;;;;;;;48.03;17.55;;;3.30;99.90;;;;;;5019716;28;20026;-67
2023/12/05 07:17:40;;;;;;;47.20;16.50;;;3.40;99.90;;;;;;5018392;28;20022;-66
2023/12/05 07:20:06;;;;;;;43.70;15.23;;;3.40;99.90;;;;;;5019610;28;20086;-66
2023/12/05 07:22:33;;;;;;;34.80;14.48;;;3.40;99.90;;;;;;5019259;28;20022;-66
2023/12/05 07:24:58;;;;;;;38.75;14.98;;;3.50;99.90;;;;;;5018429;28;20029;-66
2023/12/05 07:27:24;;;;;;;39.33;14.75;;;3.70;99.90;;;;;;5019257;28;20022;-66
2023/12/05 07:29:49;;;;;;;35.92;13.77;;;3.80;99.90;;;;;;5018759;28;20077;-66
2023/12/05 07:32:15;;;;;;;40.92;15.82;;;3.80;99.90;;;;;;5019154;28;20026;-66
2023/12/05 07:34:42;;;;;;;44.33;16.67;;;3.70;99.90;;;;;;5019323;28;20026;-66
2023/12/05 07:37:07;;;;;;;49.85;16.08;;;3.50;99.90;;;;;;5018970;28;20026;-66
2023/12/05 07:39:33;;;;;;;39.35;14.88;;;3.50;99.90;;;;;;5018243;28;20026;-66
2023/12/05 07:41:59;;;;;;;45.50;16.90;;;3.50;99.90;;;;;;5018942;28;20025;-66
2023/12/05 07:44:24;;;;;;;51.70;18.13;;;3.70;99.90;;;;;;5018355;28;20029;-66
2023/12/05 07:46:50;;;;;;;42.03;16.05;;;3.60;99.90;;;;;;5017999;28;20021;-66
2023/12/05 07:49:16;;;;;;;46.72;17.67;;;3.50;99.90;;;;;;5018191;28;20050;-66
2023/12/05 07:51:41;;;;;;;46.85;17.10;;;3.60;99.90;;;;;;5018065;28;20057;-66
2023/12/05 07:54:07;;;;;;;49.58;16.88;;;3.50;99.90;;;;;;5018176;28;20030;-66
2023/12/05 07:56:32;;;;;;;52.97;17.33;;;3.60;99.90;;;;;;5017699;28;20021;-66
2023/12/05 07:58:58;;;;;;;52.95;16.73;;;3.60;99.90;;;;;;5018799;28;20026;-66
2023/12/05 08:01:23;;;;;;;42.28;15.40;;;3.50;99.90;;;;;;5018915;28;20030;-66
2023/12/05 08:03:49;;;;;;;51.75;17.55;;;3.70;99.90;;;;;;5019227;28;20033;-66
2023/12/05 08:06:14;;;;;;;36.45;14.82;;;3.70;99.90;;;;;;5018522;28;20048;-66
2023/12/05 08:08:40;;;;;;;41.45;15.98;;;3.80;99.90;;;;;;5018500;28;20049;-66
2023/12/05 08:11:06;;;;;;;41.15;14.43;;;3.80;99.90;;;;;;5017727;28;20072;-66
2023/12/05 08:13:32;;;;;;;34.72;13.98;;;3.90;99.90;;;;;;5017539;28;20084;-67
2023/12/05 08:15:57;;;;;;;39.45;16.20;;;3.90;99.90;;;;;;5017684;28;20026;-66
2023/12/05 08:18:23;;;;;;;43.70;15.07;;;3.80;99.90;;;;;;5017334;28;20060;-66
2023/12/05 08:20:49;;;;;;;40.83;14.98;;;3.80;99.90;;;;;;5018289;28;20057;-66
2023/12/05 08:23:15;;;;;;;31.30;14.07;;;3.70;99.90;;;;;;5017585;28;20030;-67
2023/12/05 08:25:40;;;;;;;38.33;15.05;;;3.80;99.90;;;;;;5017228;28;20014;-66
2023/12/05 08:28:06;;;;;;;31.85;14.43;;;3.80;99.90;;;;;;5017305;28;20048;-66
2023/12/05 08:30:32;;;;;;;32.50;13.18;;;3.80;99.90;;;;;;5017251;28;20029;-67
2023/12/05 08:32:58;;;;;;;28.35;12.57;;;3.90;99.90;;;;;;5017096;28;20080;-66
2023/12/05 08:35:24;;;;;;;42.10;14.57;;;4.10;99.90;;;;;;5017945;28;20030;-66
2023/12/05 08:37:49;;;;;;;40.13;15.18;;;4.10;99.90;;;;;;5017070;28;20040;-66
2023/12/05 08:40:17;;;;;;;39.42;14.80;;;4.10;99.90;;;;;;5016935;28;20018;-67
2023/12/05 08:42:42;;;;;;;29.40;12.13;;;4.20;99.90;;;;;;5018179;28;20030;-67
2023/12/05 08:45:11;;;;;;;31.80;13.32;;;4.20;99.90;;;;;;5018054;28;20049;-66
2023/12/05 08:47:40;;;;;;;28.60;11.48;;;4.40;99.90;;;;;;5017692;28;20022;-66
2023/12/05 08:50:07;;;;;;;34.63;12.43;;;4.50;99.90;;;;;;5017754;28;20101;-66
2023/12/05 08:52:34;;;;;;;30.10;11.98;;;4.30;99.90;;;;;;5017239;28;20029;-66
2023/12/05 08:55:00;;;;;;;25.33;10.27;;;4.30;99.90;;;;;;5018056;28;20045;-66
2023/12/05 08:57:26;;;;;;;23.23;10.68;;;4.30;99.90;;;;;;5017482;28;20014;-66
2023/12/05 08:59:52;;;;;;;32.28;13.20;;;4.30;99.90;;;;;;5017786;28;20030;-66
2023/12/05 09:02:19;;;;;;;31.80;12.48;;;4.20;99.90;;;;;;5017658;28;20152;-66
2023/12/05 09:04:45;;;;;;;37.47;13.43;;;4.20;99.90;;;;;;5017638;28;20018;-66
2023/12/05 09:07:10;;;;;;;37.00;13.20;;;4.10;99.90;;;;;;5017408;28;20038;-66
2023/12/05 09:09:36;;;;;;;31.33;12.48;;;4.10;99.90;;;;;;5016540;28;20057;-66
2023/12/05 09:12:02;;;;;;;29.52;11.23;;;4.30;99.90;;;;;;5017085;28;20022;-66
2023/12/05 09:14:27;;;;;;;29.92;12.10;;;4.40;99.90;;;;;;5017493;28;20028;-67
2023/12/05 09:16:53;;;;;;;28.45;10.25;;;4.40;99.90;;;;;;5017440;28;20116;-66
2023/12/05 09:19:19;;;;;;;20.00;9.45;;;4.40;99.90;;;;;;5016258;28;20029;-66
2023/12/05 09:21:45;;;;;;;25.02;10.57;;;4.60;99.90;;;;;;5016335;28;20022;-66
2023/12/05 09:24:11;;;;;;;23.42;9.98;;;4.60;99.90;;;;;;5016423;28;20018;-66
2023/12/05 09:26:37;;;;;;;29.52;11.13;;;4.50;99.90;;;;;;5017308;28;20057;-66
2023/12/05 09:29:02;;;;;;;32.83;12.15;;;4.60;99.90;;;;;;5017469;28;20052;-66
2023/12/05 09:31:30;;;;;;;24.85;11.25;;;4.50;99.90;;;;;;5017216;28;20102;-66
2023/12/05 09:33:55;;;;;;;26.35;11.38;;;4.50;99.90;;;;;;5017225;28;20026;-66
2023/12/05 09:36:21;;;;;;;24.67;10.85;;;4.30;99.90;;;;;;5015977;28;20088;-66
2023/12/05 09:38:47;;;;;;;27.02;11.75;;;4.30;99.90;;;;;;5017281;28;20033;-66
2023/12/05 09:41:14;;;;;;;26.58;12.20;;;4.40;99.90;;;;;;5017288;28;20030;-66
2023/12/05 09:43:40;;;;;;;27.38;11.10;;;4.40;99.90;;;;;;5017354;28;20019;-66
2023/12/05 09:46:09;;;;;;;31.80;11.43;;;4.50;99.90;;;;;;5016081;28;20024;-66
2023/12/05 09:48:45;;;;;;;26.25;10.60;;;4.60;99.90;;;;;;5017084;28;20052;-66
2023/12/05 09:51:12;;;;;;;23.17;10.85;;;4.70;99.90;;;;;;5016582;28;20117;-66
2023/12/05 09:53:38;;;;;;;22.60;9.20;;;4.70;99.90;;;;;;5017264;28;20033;-66
2023/12/05 09:56:04;;;;;;;22.35;10.18;;;4.60;99.90;;;;;;5017137;28;20045;-66
2023/12/05 09:58:30;;;;;;;20.45;10.50;;;4.70;99.90;;;;;;5016782;28;20037;-66
2023/12/05 10:00:56;;;;;;;26.35;10.07;;;4.60;99.90;;;;;;5016941;28;20018;-66
2023/12/05 10:03:22;;;;;;;24.25;11.02;;;4.50;99.90;;;;;;5017220;28;20026;-67
2023/12/05 10:05:48;;;;;;;23.50;10.90;;;4.50;99.90;;;;;;5015968;28;20022;-66
2023/12/05 10:08:14;;;;;;;29.02;10.18;;;4.50;99.90;;;;;;5016823;28;20052;-66
2023/12/05 10:10:44;;;;;;;25.20;11.38;;;4.60;99.90;;;;;;5016851;28;20057;-67
2023/12/05 10:13:11;;;;;;;19.67;9.38;;;4.60;99.90;;;;;;5016792;28;20075;-66
2023/12/05 10:15:38;;;;;;;20.80;9.75;;;4.70;99.90;;;;;;5015864;28;20033;-66
2023/12/05 10:18:05;;;;;;;27.38;10.77;;;4.80;99.90;;;;;;5015828;28;20030;-66
2023/12/05 10:20:30;;;;;;;26.60;10.20;;;4.80;99.90;;;;;;5016856;28;20097;-67
2023/12/05 10:22:56;;;;;;;28.38;10.60;;;4.90;99.90;;;;;;5016835;28;20046;-66
2023/12/05 10:25:21;;;;;;;26.48;10.95;;;5.00;99.90;;;;;;5015787;28;20082;-66
2023/12/05 10:28:03;;;;;;;25.63;10.70;;;4.90;99.90;;;;;;5015947;28;20037;-66
2023/12/05 10:30:33;;;;;;;27.17;10.88;;;4.90;99.90;;;;;;5016907;28;20076;-66
2023/12/05 10:33:08;;;;;;;26.83;11.60;;;5.00;99.90;;;;;;5016542;28;20026;-66
2023/12/05 10:35:33;;;;;;;22.83;11.05;;;4.80;99.90;;;;;;5015373;28;20030;-66
2023/12/05 10:38:04;;;;;;;27.58;11.65;;;4.90;99.90;;;;;;5016406;28;20033;-66
2023/12/05 10:40:30;;;;;;;25.10;10.18;;;5.00;99.90;;;;;;5015431;28;20025;-66
2023/12/05 10:42:55;;;;;;;27.10;11.05;;;5.00;99.90;;;;;;5016497;28;20026;-66
2023/12/05 10:45:21;;;;;;;31.17;12.25;;;5.00;99.90;;;;;;5017014;28;20040;-66
2023/12/05 10:47:47;;;;;;;31.33;12.45;;;5.00;99.90;;;;;;5019393;28;20040;-66
2023/12/05 10:50:12;;;;;;;31.65;12.60;;;5.00;99.90;;;;;;5019960;28;20139;-67
2023/12/05 10:52:38;;;;;;;26.73;11.98;;;5.10;99.90;;;;;;5019845;28;20037;-66
2023/12/05 10:55:04;;;;;;;33.65;12.98;;;5.10;99.90;;;;;;5019898;28;20026;-67
2023/12/05 10:57:33;;;;;;;28.77;11.77;;;5.10;99.90;;;;;;5020085;28;20022;-66
2023/12/05 10:59:59;;;;;;;35.25;12.00;;;5.20;99.90;;;;;;5019938;28;20029;-66
2023/12/05 11:02:25;;;;;;;25.48;11.05;;;5.10;99.90;;;;;;5019917;28;20027;-66
2023/12/05 11:04:51;;;;;;;28.23;11.85;;;5.10;99.90;;;;;;5019763;28;20032;-66
2023/12/05 11:07:17;;;;;;;32.70;11.40;;;5.00;99.90;;;;;;5019554;28;20029;-66
2023/12/05 11:09:43;;;;;;;24.50;11.25;;;5.10;99.90;;;;;;5019618;28;20080;-66
2023/12/05 11:12:09;;;;;;;24.02;10.02;;;5.20;99.90;;;;;;5019556;28;20032;-66
2023/12/05 11:14:40;;;;;;;43.63;10.43;;;5.30;99.90;;;;;;5019550;28;20054;-66
2023/12/05 11:17:12;;;;;;;25.20;11.00;;;5.20;99.90;;;;;;5018937;28;20025;-66
2023/12/05 11:19:37;;;;;;;;;;;5.20;99.90;;;;;;5020232;28;20033;-66
2023/12/05 11:22:27;;;;;;;20.17;9.55;;;5.30;99.90;;;;;;5018586;28;19905;-66
2023/12/05 11:25:08;;;;;;;25.20;9.43;;;5.30;99.90;;;;;;5019669;28;20022;-66
2023/12/05 11:27:55;;;;;;;28.17;10.80;;;5.30;99.90;;;;;;5019352;28;20030;-66
2023/12/05 11:30:36;;;;;;;24.13;9.77;;;5.30;99.90;;;;;;5018352;28;20054;-66
2023/12/05 11:33:12;;;;;;;25.70;9.98;;;5.30;99.90;;;;;;5018789;28;20160;-66
2023/12/05 11:36:00;;;;;;;27.35;10.38;;;5.20;99.90;;;;;;5042625;22;20058;-65
2023/12/05 11:38:28;;;;;;;23.38;9.32;;;5.40;99.90;;;;;;4998287;28;20045;-64
2023/12/05 11:41:20;;;;;;;18.17;8.40;;;5.50;99.90;;;;;;4998736;28;20022;-64
2023/12/05 11:44:11;;;;;;;20.92;9.00;;;5.60;99.90;;;;;;4999746;28;20026;-64
2023/12/05 11:46:36;;;;;;;20.00;8.18;;;5.60;99.90;;;;;;5015313;28;20029;-64
2023/12/05 11:49:03;;;;;;;22.50;9.93;;;5.50;99.90;;;;;;4998510;28;20031;-64
2023/12/05 11:51:33;;;;;;;24.58;11.40;;;5.50;99.90;;;;;;5000056;28;20041;-61
2023/12/05 11:54:05;;;;;;;21.20;10.00;;;5.30;99.90;;;;;;4998592;28;20089;-62
2023/12/05 11:56:31;;;;;;;17.13;8.23;;;5.30;99.90;;;;;;4998290;28;20031;-61
2023/12/05 11:59:19;;;;;;;19.00;8.68;;;5.50;99.90;;;;;;4999049;28;20034;-61
2023/12/05 12:01:48;;;;;;;15.93;7.68;;;5.60;99.90;;;;;;4999057;28;20068;-61
2023/12/05 12:04:21;;;;;;;21.65;8.88;;;5.70;99.90;;;;;;4999072;28;20030;-61
2023/12/05 12:06:48;;;;;;;19.60;9.30;;;5.70;99.90;;;;;;4998892;28;20017;-61
2023/12/05 12:09:14;;;;;;;18.00;9.05;;;5.60;99.90;;;;;;5014372;28;20026;-62
2023/12/05 12:11:40;;;;;;;18.25;8.00;;;5.60;99.90;;;;;;4998852;28;20026;-61
2023/12/05 12:14:18;;;;;;;15.43;7.35;;;5.50;99.90;;;;;;4997806;28;20037;-63
2023/12/05 12:16:45;;;;;;;17.90;6.75;;;5.70;99.90;;;;;;4998971;28;20097;-64
2023/12/05 12:19:15;;;;;;;14.95;7.03;;;5.80;99.90;;;;;;4997580;28;20045;-64
2023/12/05 12:21:45;;;;;;;16.73;7.55;;;5.80;99.90;;;;;;4997789;28;20022;-64
2023/12/05 12:24:21;;;;;;;16.00;6.88;;;5.80;99.90;;;;;;4997924;28;20023;-64
2023/12/05 12:26:57;;;;;;;16.13;7.28;;;5.80;99.90;;;;;;4998332;28;20073;-63
2023/12/05 12:29:24;;;;;;;19.00;6.97;;;5.80;99.90;;;;;;4998679;28;20030;-61
2023/12/05 12:31:52;;;;;;;15.90;6.68;;;5.90;99.90;;;;;;5013960;28;20029;-61
2023/12/05 12:34:26;;;;;;;13.90;6.05;;;5.90;99.90;;;;;;4998496;28;20030;-61
2023/12/05 12:36:51;;;;;;;14.88;7.18;;;6.00;99.90;;;;;;4997905;28;20096;-61
2023/12/05 12:39:18;;;;;;;16.35;6.15;;;6.10;99.90;;;;;;4998576;28;20026;-61